createdAt,value
2023-08-26T00:02:21.358Z,94.70
2023-08-26T00:04:48.920Z,94.80
2023-08-26T00:07:15.955Z,95.20
2023-08-26T00:09:42.989Z,95.60
2023-08-26T00:12:10.145Z,95.60
2023-08-26T00:14:37.269Z,95.30
2023-08-26T00:17:05.843Z,95.20
2023-08-26T00:19:33.215Z,95.40
2023-08-26T00:22:01.872Z,95.60
2023-08-26T00:24:29.200Z,95.90
2023-08-26T00:26:56.433Z,96.50
2023-08-26T00:29:23.552Z,96.70
2023-08-26T00:31:50.786Z,97.10
2023-08-26T00:34:17.884Z,97.50
2023-08-26T00:36:45.248Z,97.20
2023-08-26T00:39:12.462Z,97.50
2023-08-26T00:41:39.558Z,97.80
2023-08-26T00:44:06.765Z,97.80
2023-08-26T00:46:35.893Z,97.80
2023-08-26T00:49:04.093Z,97.60
2023-08-26T00:51:32.378Z,97.40
2023-08-26T00:54:05.940Z,97.20
2023-08-26T00:56:34.447Z,97.40
2023-08-26T00:59:02.413Z,97.30
2023-08-26T01:01:32.861Z,97.20
2023-08-26T01:04:00.104Z,97.20
2023-08-26T01:06:28.317Z,97.30
2023-08-26T01:08:55.867Z,97.40
2023-08-26T01:11:34.166Z,97.40
2023-08-26T01:14:07.050Z,97.10
2023-08-26T01:16:36.389Z,97.30
2023-08-26T01:19:09.420Z,97.20
2023-08-26T01:21:39.059Z,97.40
2023-08-26T01:24:07.615Z,97.60
2023-08-26T01:26:34.686Z,97.70
2023-08-26T01:29:01.875Z,97.80
2023-08-26T01:35:39.112Z,97.60
2023-08-26T01:38:09.108Z,97.60
2023-08-26T01:40:37.998Z,97.50
2023-08-26T01:43:08.842Z,97.70
2023-08-26T01:45:35.901Z,97.90
2023-08-26T01:48:03.132Z,98.10
2023-08-26T01:50:30.522Z,98.10
2023-08-26T01:52:57.578Z,98.60
2023-08-26T01:55:24.670Z,98.90
2023-08-26T01:57:51.749Z,99.00
2023-08-26T02:00:19.101Z,99.40
2023-08-26T02:02:46.285Z,99.70
2023-08-26T02:05:13.433Z,100.00
2023-08-26T02:07:40.485Z,100.00
2023-08-26T02:10:08.224Z,99.80
2023-08-26T02:12:35.304Z,100.00
2023-08-26T02:15:04.458Z,100.00
2023-08-26T02:17:31.826Z,100.00
2023-08-26T02:19:58.998Z,100.00
2023-08-26T02:22:26.087Z,100.00
2023-08-26T02:24:53.170Z,100.00
2023-08-26T02:27:20.271Z,100.00
2023-08-26T02:29:47.337Z,100.00
2023-08-26T02:32:15.440Z,100.00
2023-08-26T02:34:42.508Z,100.00
2023-08-26T02:37:09.594Z,100.00
2023-08-26T02:39:36.828Z,100.00
2023-08-26T02:42:04.083Z,100.00
2023-08-26T02:44:31.097Z,100.00
2023-08-26T02:46:58.209Z,100.00
2023-08-26T02:49:25.239Z,100.00
2023-08-26T02:51:52.317Z,100.00
2023-08-26T02:54:20.604Z,100.00
2023-08-26T02:56:47.686Z,100.00
2023-08-26T02:59:14.741Z,100.00
2023-08-26T03:01:42.042Z,100.00
2023-08-26T03:04:09.172Z,99.90
2023-08-26T03:06:36.279Z,99.80
2023-08-26T03:09:03.951Z,99.60
2023-08-26T03:11:31.015Z,99.50
2023-08-26T03:13:58.102Z,99.50
2023-08-26T03:16:25.195Z,99.40
2023-08-26T03:18:54.317Z,99.40
2023-08-26T03:21:22.474Z,99.30
2023-08-26T03:23:49.570Z,99.20
2023-08-26T03:26:16.716Z,99.20
2023-08-26T03:28:44.019Z,99.10
2023-08-26T03:31:12.140Z,99.00
2023-08-26T03:33:45.490Z,98.90
2023-08-26T03:36:13.472Z,98.70
2023-08-26T03:38:40.532Z,98.40
2023-08-26T03:41:08.004Z,98.40
2023-08-26T03:43:35.315Z,98.20
2023-08-26T03:46:04.808Z,98.10
2023-08-26T03:48:32.320Z,97.90
2023-08-26T03:50:59.939Z,98.20
2023-08-26T03:53:28.641Z,98.40
2023-08-26T03:55:55.863Z,98.40
2023-08-26T03:58:23.071Z,98.40
2023-08-26T04:01:21.580Z,98.40
2023-08-26T04:03:52.447Z,98.50
2023-08-26T04:06:20.117Z,98.40
2023-08-26T04:08:47.298Z,98.20
2023-08-26T04:11:16.431Z,98.40
2023-08-26T04:13:43.566Z,98.40
2023-08-26T04:16:10.673Z,98.50
2023-08-26T04:18:37.776Z,98.40
2023-08-26T04:21:05.667Z,98.30
2023-08-26T04:23:32.792Z,98.30
2023-08-26T04:26:07.133Z,98.30
2023-08-26T04:28:34.254Z,98.30
2023-08-26T04:31:01.697Z,98.10
2023-08-26T04:33:29.217Z,98.00
2023-08-26T04:35:56.340Z,98.00
2023-08-26T04:38:23.545Z,98.10
2023-08-26T04:40:50.690Z,98.10
2023-08-26T04:43:18.229Z,98.00
2023-08-26T04:45:45.379Z,98.00
2023-08-26T04:48:13.942Z,98.10
2023-08-26T04:50:42.849Z,98.00
2023-08-26T04:53:10.087Z,98.00
2023-08-26T04:55:38.016Z,98.10
2023-08-26T04:58:07.974Z,98.00
2023-08-26T05:00:35.299Z,97.70
2023-08-26T05:03:02.594Z,97.90
2023-08-26T05:05:29.754Z,97.90
2023-08-26T05:07:57.348Z,98.00
2023-08-26T05:10:24.718Z,98.00
2023-08-26T05:12:51.914Z,97.90
2023-08-26T05:15:18.990Z,97.80
2023-08-26T05:17:46.512Z,97.60
2023-08-26T05:20:13.743Z,97.80
2023-08-26T05:22:44.000Z,98.00
2023-08-26T05:25:11.231Z,98.20
2023-08-26T05:27:38.345Z,98.00
2023-08-26T05:30:06.522Z,98.10
2023-08-26T05:32:40.295Z,98.10
2023-08-26T05:39:06.128Z,98.20
2023-08-26T05:41:33.931Z,98.10
2023-08-26T05:44:01.132Z,98.10
2023-08-26T05:46:28.294Z,98.00
2023-08-26T05:48:55.457Z,98.00
2023-08-26T05:51:23.011Z,98.10
2023-08-26T05:53:50.153Z,98.30
2023-08-26T05:56:17.211Z,98.00
2023-08-26T05:58:44.678Z,98.00
2023-08-26T06:01:11.748Z,98.10
2023-08-26T06:03:38.881Z,98.10
2023-08-26T06:06:06.889Z,98.00
2023-08-26T06:08:34.076Z,97.80
2023-08-26T06:11:01.144Z,97.70
2023-08-26T06:13:28.858Z,97.50
2023-08-26T06:15:56.886Z,97.50
2023-08-26T06:18:25.201Z,97.70
2023-08-26T06:20:52.973Z,97.80
2023-08-26T06:23:21.102Z,97.70
2023-08-26T06:25:58.566Z,98.10
2023-08-26T06:28:26.932Z,98.20
2023-08-26T06:30:59.285Z,98.40
2023-08-26T06:33:30.062Z,98.60
2023-08-26T06:35:57.276Z,98.20
2023-08-26T06:38:24.386Z,97.60
2023-08-26T06:40:57.238Z,97.30
2023-08-26T06:43:25.448Z,97.20
2023-08-26T06:45:53.383Z,97.90
2023-08-26T06:48:20.880Z,96.30
2023-08-26T06:51:39.218Z,96.40
2023-08-26T06:54:06.587Z,96.70
2023-08-26T06:56:33.692Z,95.80
2023-08-26T06:59:00.780Z,96.30
2023-08-26T07:01:27.998Z,97.00
2023-08-26T07:04:03.600Z,97.30
2023-08-26T07:06:30.839Z,96.90
2023-08-26T07:08:58.058Z,96.90
2023-08-26T07:11:25.205Z,95.40
2023-08-26T07:13:52.307Z,94.70
2023-08-26T07:16:19.406Z,95.00
2023-08-26T07:18:46.678Z,94.40
2023-08-26T07:21:15.452Z,94.50
2023-08-26T07:23:42.654Z,94.90
2023-08-26T07:26:09.960Z,95.60
2023-08-26T07:28:37.032Z,94.80
2023-08-26T07:31:05.910Z,94.60
2023-08-26T07:33:33.648Z,95.00
2023-08-26T07:36:07.546Z,96.00
2023-08-26T07:38:35.428Z,95.10
2023-08-26T07:41:02.606Z,95.60
2023-08-26T07:43:29.693Z,95.80
2023-08-26T07:50:56.724Z,93.20
2023-08-26T07:53:23.918Z,92.60
2023-08-26T07:55:51.084Z,92.70
2023-08-26T07:58:18.124Z,92.90
2023-08-26T08:00:46.313Z,92.10
2023-08-26T08:03:13.643Z,93.10
2023-08-26T08:06:33.717Z,91.70
2023-08-26T08:09:00.936Z,91.50
2023-08-26T08:11:28.344Z,91.10
2023-08-26T08:13:55.433Z,91.00
2023-08-26T08:16:22.507Z,91.30
2023-08-26T08:18:49.657Z,90.80
2023-08-26T08:21:16.735Z,90.00
2023-08-26T08:23:45.244Z,89.50
2023-08-26T08:26:12.943Z,89.20
2023-08-26T08:28:40.072Z,89.70
2023-08-26T08:31:07.222Z,90.70
2023-08-26T08:33:35.340Z,89.90
2023-08-26T08:36:02.687Z,89.70
2023-08-26T08:38:29.757Z,87.90
2023-08-26T08:40:56.825Z,87.60
2023-08-26T08:43:25.196Z,86.70
2023-08-26T08:45:54.187Z,86.60
2023-08-26T08:48:21.864Z,85.50
2023-08-26T08:50:49.056Z,87.10
2023-08-26T08:53:20.325Z,87.00
2023-08-26T08:55:47.676Z,86.50
2023-08-26T08:58:15.245Z,86.40
2023-08-26T09:00:43.314Z,87.50
2023-08-26T09:03:10.905Z,84.00
2023-08-26T09:05:38.374Z,83.00
2023-08-26T09:08:09.439Z,81.90
2023-08-26T09:10:37.072Z,82.40
2023-08-26T09:13:07.738Z,81.10
2023-08-26T09:15:34.900Z,80.90
2023-08-26T09:18:13.499Z,80.60
2023-08-26T09:20:41.552Z,81.40
2023-08-26T09:23:11.434Z,81.20
2023-08-26T09:25:38.764Z,80.80
2023-08-26T09:28:06.320Z,81.50
2023-08-26T09:30:33.464Z,80.10
2023-08-26T09:33:00.708Z,80.70
2023-08-26T09:37:59.688Z,81.70
2023-08-26T09:40:27.106Z,81.30
2023-08-26T09:42:54.602Z,80.70
2023-08-26T09:45:22.000Z,80.40
2023-08-26T09:47:52.969Z,80.30
2023-08-26T09:50:34.391Z,79.40
2023-08-26T09:53:01.732Z,79.40
2023-08-26T09:55:31.313Z,77.90
2023-08-26T09:57:59.467Z,79.10
2023-08-26T10:00:27.952Z,78.60
2023-08-26T10:03:03.398Z,77.80
2023-08-26T10:05:33.351Z,75.80
2023-08-26T10:08:07.931Z,76.70
2023-08-26T10:10:50.776Z,75.00
2023-08-26T10:13:21.662Z,77.10
2023-08-26T10:15:52.284Z,78.40
2023-08-26T10:18:50.820Z,77.20
2023-08-26T10:21:18.508Z,78.40
2023-08-26T10:23:50.617Z,76.50
2023-08-26T10:26:20.422Z,75.80
2023-08-26T10:28:48.974Z,76.60
2023-08-26T10:31:17.934Z,74.70
2023-08-26T10:34:04.073Z,76.20
2023-08-26T10:36:34.469Z,74.50
2023-08-26T10:39:02.170Z,78.00
2023-08-26T10:41:29.431Z,75.10
2023-08-26T10:44:02.697Z,74.30
2023-08-26T10:46:38.000Z,73.90
2023-08-26T10:49:05.744Z,74.40
2023-08-26T10:51:36.793Z,73.50
2023-08-26T10:54:07.004Z,72.40
2023-08-26T10:56:40.931Z,72.40
2023-08-26T10:59:08.790Z,75.00
2023-08-26T11:01:37.180Z,75.10
2023-08-26T11:04:06.307Z,74.10
2023-08-26T11:06:42.855Z,72.00
2023-08-26T11:09:15.367Z,74.10
2023-08-26T11:11:43.896Z,71.90
2023-08-26T11:14:11.429Z,72.20
2023-08-26T11:16:38.621Z,72.00
2023-08-26T11:19:08.066Z,70.20
2023-08-26T11:21:39.165Z,72.20
2023-08-26T11:24:06.438Z,71.20
2023-08-26T11:26:33.734Z,73.10
2023-08-26T11:29:02.132Z,72.50
2023-08-26T11:31:30.212Z,70.50
2023-08-26T11:33:57.696Z,69.70
2023-08-26T11:36:26.096Z,70.40
2023-08-26T11:38:53.247Z,69.10
2023-08-26T11:41:22.278Z,69.10
2023-08-26T11:43:49.358Z,70.40
2023-08-26T11:46:19.109Z,67.10
2023-08-26T11:48:46.364Z,67.80
2023-08-26T11:51:13.509Z,70.40
2023-08-26T11:53:40.752Z,70.70
2023-08-26T11:56:08.492Z,70.00
2023-08-26T11:58:39.010Z,71.00
2023-08-26T12:01:09.402Z,71.90
2023-08-26T12:03:44.992Z,71.10
2023-08-26T12:06:14.852Z,70.80
2023-08-26T12:08:42.052Z,72.50
2023-08-26T12:11:09.105Z,71.20
2023-08-26T12:13:40.427Z,72.10
2023-08-26T12:16:07.567Z,71.10
2023-08-26T12:18:34.836Z,71.90
2023-08-26T12:21:02.137Z,71.80
2023-08-26T12:23:30.176Z,71.00
2023-08-26T12:25:57.505Z,70.40
2023-08-26T12:28:27.783Z,71.00
2023-08-26T12:30:55.122Z,72.20
2023-08-26T12:33:26.400Z,71.30
2023-08-26T12:35:56.221Z,72.40
2023-08-26T12:38:24.662Z,70.90
2023-08-26T12:40:52.360Z,70.90
2023-08-26T12:43:20.564Z,72.30
2023-08-26T12:45:48.338Z,71.90
2023-08-26T12:48:21.911Z,73.70
2023-08-26T12:51:00.936Z,75.50
2023-08-26T12:53:28.088Z,72.30
2023-08-26T12:55:55.363Z,72.30
2023-08-26T12:58:25.655Z,73.50
2023-08-26T13:00:53.095Z,74.80
2023-08-26T13:03:20.372Z,77.00
2023-08-26T13:05:50.053Z,75.30
2023-08-26T13:08:17.313Z,75.50
2023-08-26T13:10:44.581Z,77.10
2023-08-26T13:13:11.738Z,77.60
2023-08-26T13:15:40.999Z,77.50
2023-08-26T13:18:08.650Z,78.50
2023-08-26T13:20:36.125Z,78.60
2023-08-26T13:23:04.304Z,78.40
2023-08-26T13:25:31.780Z,78.80
2023-08-26T13:27:59.282Z,79.50
2023-08-26T13:30:26.624Z,79.40
2023-08-26T13:32:53.802Z,79.90
2023-08-26T13:35:20.894Z,80.60
2023-08-26T13:37:47.965Z,81.80
2023-08-26T13:40:15.014Z,81.80
2023-08-26T13:42:42.103Z,82.20
2023-08-26T13:45:09.583Z,82.40
2023-08-26T13:47:36.687Z,83.20
2023-08-26T13:50:03.874Z,83.70
2023-08-26T13:52:30.916Z,83.80
2023-08-26T13:54:58.089Z,82.60
2023-08-26T13:57:25.957Z,82.60
2023-08-26T13:59:53.007Z,83.80
2023-08-26T14:02:21.950Z,84.90
2023-08-26T14:04:49.078Z,85.30
2023-08-26T14:07:28.384Z,85.20
2023-08-26T14:09:55.340Z,86.90
2023-08-26T14:12:22.418Z,87.60
2023-08-26T14:14:49.459Z,87.50
2023-08-26T14:17:16.556Z,88.10
2023-08-26T14:19:43.622Z,87.30
2023-08-26T14:22:11.121Z,88.00
2023-08-26T14:24:38.308Z,88.10
2023-08-26T14:27:12.815Z,88.70
2023-08-26T14:34:05.113Z,88.00
2023-08-26T14:36:32.134Z,88.90
2023-08-26T14:39:02.622Z,89.00
2023-08-26T14:41:31.092Z,89.70
2023-08-26T14:43:59.272Z,89.00
2023-08-26T14:46:26.493Z,90.00
2023-08-26T14:48:57.473Z,90.70
2023-08-26T14:51:26.589Z,91.30
2023-08-26T14:53:53.854Z,91.70
2023-08-26T14:56:20.950Z,91.30
2023-08-26T14:58:47.999Z,91.30
2023-08-26T15:01:15.051Z,91.70
2023-08-26T15:03:44.574Z,91.80
2023-08-26T15:06:11.929Z,91.80
2023-08-26T15:08:39.559Z,91.10
2023-08-26T15:11:09.248Z,90.30
2023-08-26T15:13:36.514Z,90.60
2023-08-26T15:16:03.981Z,89.80
2023-08-26T15:18:32.005Z,90.80
2023-08-26T15:20:59.075Z,91.00
2023-08-26T15:23:26.206Z,91.30
2023-08-26T15:25:54.986Z,91.10
2023-08-26T15:28:26.315Z,90.70
2023-08-26T15:30:57.488Z,90.50
2023-08-26T15:33:30.831Z,90.50
2023-08-26T15:35:57.913Z,90.50
2023-08-26T15:38:25.139Z,90.50
2023-08-26T15:40:57.017Z,90.10
2023-08-26T15:43:24.549Z,89.80
2023-08-26T15:45:52.764Z,89.60
2023-08-26T15:48:21.076Z,88.70
2023-08-26T15:50:48.344Z,88.30
2023-08-26T15:53:18.289Z,88.10
2023-08-26T15:55:46.567Z,88.20
2023-08-26T15:58:19.418Z,88.90
2023-08-26T16:01:14.636Z,89.90
2023-08-26T16:03:43.904Z,90.40
2023-08-26T16:06:10.945Z,90.20
2023-08-26T16:08:39.291Z,90.00
2023-08-26T16:11:07.090Z,90.30
2023-08-26T16:13:35.174Z,90.10
2023-08-26T16:16:04.254Z,89.50
2023-08-26T16:18:31.346Z,89.10
2023-08-26T16:25:16.621Z,89.50
2023-08-26T16:27:43.847Z,89.00
2023-08-26T16:30:11.527Z,88.60
2023-08-26T16:32:38.720Z,88.60
2023-08-26T16:35:08.184Z,89.10
2023-08-26T16:37:35.995Z,89.20
2023-08-26T16:40:04.273Z,89.40
2023-08-26T16:42:31.568Z,89.40
2023-08-26T16:44:58.883Z,89.50
2023-08-26T16:47:26.449Z,89.50
2023-08-26T16:49:53.726Z,90.40
2023-08-26T16:52:21.318Z,90.50
2023-08-26T16:54:49.940Z,90.20
2023-08-26T16:57:18.100Z,90.20
2023-08-26T16:59:45.530Z,90.80
2023-08-26T17:02:14.364Z,91.00
2023-08-26T17:04:41.584Z,90.80
2023-08-26T17:07:08.982Z,90.50
2023-08-26T17:09:36.104Z,91.10
2023-08-26T17:12:04.565Z,91.10
2023-08-26T17:14:32.575Z,90.60
2023-08-26T17:17:01.357Z,90.70
2023-08-26T17:19:29.353Z,90.50
2023-08-26T17:26:21.556Z,90.90
2023-08-26T17:28:48.638Z,91.10
2023-08-26T17:31:15.726Z,90.90
2023-08-26T17:33:42.826Z,90.90
2023-08-26T17:36:09.922Z,90.90
2023-08-26T17:38:36.976Z,91.20
2023-08-26T17:41:04.113Z,91.50
2023-08-26T17:43:31.196Z,91.90
2023-08-26T17:45:58.340Z,92.10
2023-08-26T17:48:26.026Z,92.20
2023-08-26T17:50:55.171Z,92.30
2023-08-26T17:53:26.002Z,92.30
2023-08-26T17:55:53.092Z,92.00
2023-08-26T17:58:20.233Z,92.20
2023-08-26T18:00:48.689Z,92.30
2023-08-26T18:03:16.635Z,92.10
2023-08-26T18:05:44.151Z,91.90
2023-08-26T18:08:11.237Z,92.20
2023-08-26T18:10:38.526Z,92.60
2023-08-26T18:13:08.877Z,92.60
2023-08-26T18:15:37.398Z,92.80
2023-08-26T18:18:04.657Z,92.80
2023-08-26T18:20:32.184Z,92.80
2023-08-26T18:22:59.493Z,92.70
2023-08-26T18:25:26.880Z,92.60
2023-08-26T18:27:53.996Z,92.50
2023-08-26T18:30:21.334Z,92.70
2023-08-26T18:32:48.502Z,92.70
2023-08-26T18:35:15.606Z,92.90
2023-08-26T18:37:42.700Z,92.80
2023-08-26T18:40:10.043Z,92.80
2023-08-26T18:42:37.189Z,92.90
2023-08-26T18:45:04.582Z,93.00
2023-08-26T18:47:31.866Z,93.20
2023-08-26T18:49:58.959Z,93.70
2023-08-26T18:52:26.129Z,93.90
2023-08-26T18:54:54.574Z,94.00
2023-08-26T18:57:22.399Z,94.00
2023-08-26T18:59:49.491Z,94.30
2023-08-26T19:02:16.546Z,94.40
2023-08-26T19:04:43.752Z,94.00
2023-08-26T19:07:10.844Z,93.90
2023-08-26T19:09:37.929Z,94.00
2023-08-26T19:12:05.373Z,94.10
2023-08-26T19:14:39.620Z,94.10
2023-08-26T19:17:06.662Z,94.40
2023-08-26T19:19:33.740Z,94.30
2023-08-26T19:22:50.571Z,94.40
2023-08-26T19:25:20.800Z,94.40
2023-08-26T19:27:48.565Z,94.60
2023-08-26T19:30:15.650Z,94.90
2023-08-26T19:32:42.806Z,94.90
2023-08-26T19:35:09.903Z,94.90
2023-08-26T19:37:36.988Z,95.00
2023-08-26T19:40:04.525Z,95.00
2023-08-26T19:42:31.777Z,95.20
2023-08-26T19:44:58.819Z,95.30
2023-08-26T19:47:25.905Z,95.30
2023-08-26T19:49:53.094Z,95.30
2023-08-26T19:52:20.222Z,95.30
2023-08-26T19:54:47.248Z,95.30
2023-08-26T19:57:23.885Z,95.20
2023-08-26T19:59:51.685Z,95.20
2023-08-26T20:02:19.135Z,95.10
2023-08-26T20:04:50.307Z,95.00
2023-08-26T20:07:18.360Z,95.20
2023-08-26T20:09:45.529Z,94.90
2023-08-26T20:12:14.558Z,95.10
2023-08-26T20:14:44.509Z,95.10
2023-08-26T20:17:12.204Z,95.20
2023-08-26T20:19:39.546Z,95.30
2023-08-26T20:22:07.488Z,95.10
2023-08-26T20:24:54.876Z,94.90
2023-08-26T20:27:25.868Z,94.50
2023-08-26T20:29:55.070Z,94.30
2023-08-26T20:32:22.612Z,94.20
2023-08-26T20:34:50.177Z,94.20
2023-08-26T20:37:17.787Z,94.10
2023-08-26T20:39:45.189Z,94.00
2023-08-26T20:42:14.579Z,93.60
2023-08-26T20:44:44.303Z,93.40
2023-08-26T20:51:09.800Z,93.60
2023-08-26T20:53:36.981Z,93.50
2023-08-26T20:56:32.069Z,93.50
2023-08-26T20:58:59.187Z,93.50
2023-08-26T21:01:26.689Z,93.10
2023-08-26T21:03:53.930Z,93.10
2023-08-26T21:06:21.224Z,93.10
2023-08-26T21:08:48.387Z,93.60
2023-08-26T21:11:15.597Z,94.00
2023-08-26T21:13:42.665Z,94.40
2023-08-26T21:16:11.074Z,94.80
2023-08-26T21:18:39.148Z,95.20
2023-08-26T21:21:06.236Z,95.30
2023-08-26T21:23:33.294Z,95.50
2023-08-26T21:26:00.400Z,95.70
2023-08-26T21:28:27.806Z,95.90
2023-08-26T21:30:55.327Z,96.10
2023-08-26T21:33:23.425Z,96.50
2023-08-26T21:35:51.383Z,96.40
2023-08-26T21:38:18.473Z,96.50
2023-08-26T21:40:45.703Z,96.60
2023-08-26T21:43:14.080Z,96.90
2023-08-26T21:45:41.457Z,96.90
2023-08-26T21:48:41.752Z,96.80
2023-08-26T21:51:09.004Z,96.80
2023-08-26T21:53:36.084Z,96.60
2023-08-26T21:56:03.343Z,96.70
2023-08-26T21:58:30.449Z,96.80
2023-08-26T22:01:00.653Z,96.90
2023-08-26T22:03:28.128Z,97.00
2023-08-26T22:05:55.994Z,97.10
2023-08-26T22:08:23.154Z,97.30
2023-08-26T22:10:50.258Z,97.50
2023-08-26T22:13:17.818Z,97.60
2023-08-26T22:15:46.081Z,97.40
2023-08-26T22:18:13.236Z,97.20
2023-08-26T22:20:42.101Z,97.10
2023-08-26T22:23:09.334Z,97.40
2023-08-26T22:25:36.560Z,97.60
2023-08-26T22:28:04.100Z,97.70
2023-08-26T22:30:31.314Z,97.70
2023-08-26T22:32:58.703Z,97.70
2023-08-26T22:35:26.060Z,97.70
2023-08-26T22:37:53.129Z,97.80
2023-08-26T22:40:20.317Z,97.90
2023-08-26T22:42:47.391Z,97.90
2023-08-26T22:45:14.563Z,97.90
2023-08-26T22:47:41.842Z,97.90
2023-08-26T22:50:09.536Z,97.90
2023-08-26T22:52:36.617Z,97.60
2023-08-26T22:55:04.273Z,97.40
2023-08-26T22:57:31.358Z,97.20
2023-08-26T22:59:58.497Z,96.90
2023-08-26T23:02:26.073Z,96.60
2023-08-26T23:04:53.320Z,96.40
2023-08-26T23:07:20.523Z,96.40
2023-08-26T23:09:47.609Z,96.30
2023-08-26T23:12:14.681Z,96.30
2023-08-26T23:14:41.845Z,96.50
2023-08-26T23:17:09.003Z,96.50
2023-08-26T23:19:36.691Z,96.60
2023-08-26T23:22:03.883Z,96.60
2023-08-26T23:24:31.086Z,96.70
2023-08-26T23:26:58.276Z,96.60
2023-08-26T23:29:25.358Z,96.50
2023-08-26T23:31:52.668Z,96.60
2023-08-26T23:34:20.023Z,96.70
2023-08-26T23:36:47.912Z,96.90
2023-08-26T23:39:15.131Z,97.00
2023-08-26T23:41:42.890Z,97.00
2023-08-26T23:44:09.993Z,97.10
2023-08-26T23:46:37.306Z,97.30
2023-08-26T23:49:04.453Z,97.30
2023-08-26T23:51:31.800Z,97.30
2023-08-26T23:53:59.067Z,97.00
2023-08-26T23:56:26.166Z,96.70
2023-08-26T23:58:53.264Z,96.60
